Domov               UVHVVR             MKGP            O straneh              
ZDRAVSTVENO VARSTVO RASTLIN
  MREŽA AGROMET. POSTAJ
 ► PROGNOSTIČNA OBVESTILA
AGROMETEOROLOŠKI PODATKI -
ARSO
OBVLADOVANJE TVEGANJ ZARADI
NEUGODNIH VREMENSKIH RAZMER
  ► NARAVNE NESREČE
  ► SUŠA/MOČA
  ► NAMAKANJE
  ► ŽLED (gozdarstvo)
KARTOGRAFSKI PRIKAZI
SPLETNE POVEZAVE
PROJEKTI IN PUBLIKACIJE

AGROMETEOROLOŠKA MREŽA: VREMENSKE POSTAJE IN FENOLOŠKA OPAZOVANJA

Pregled podatkov za lokacijo Šentjernej APS, meteorološka postaja 49205

Pregled senzorjev na lokaciji

ID Ime Zadnja
vrednost
Datum in čas
zadnje
spremembe
(Lokalni čas)
Tip
senzorja
3731 Sončno sevanje (W/m2) 0.55 W/m2 10.4.2020 02:30 Pyranometer SP-Lite
3730 Omočenost lista (U) 0 U 10.4.2020 02:30 A730WET
5065 Padavine (mm) 0 mm 10.4.2020 02:30 Generic 0.2 mm
3729 Relativna vlaga 2 m (% RH) 49.74 % RH 10.4.2020 02:30 50YA
3728 Temperatura 2 m (°C) 8.75 °C 10.4.2020 02:30 50YA
3734 Smer vetra (°) 197.84 ° 10.4.2020 02:30 566.2S-130
3733 Hitrost vetra (km/h) 5.68 km/h 10.4.2020 02:30 566.2S-176 (200km/h)

Pregled podatkov zadnjih 24 ur

Zap.
št.
Datum in čas
(Centralno
evropski čas)
Šentjernej APS
Sončno
sevanje
Omočenost
lista
Padavine Relativna
vlaga
2
m
Temperatura
2
m
Smer
vetra
Hitrost
vetra
1 10.4.2020 02:30
2 10.4.2020 02:00
3 10.4.2020 01:30 0.5 0 0 49.7 8.7 197.8 5.7
4 10.4.2020 01:00 0.5 0 0 46.2 9.5 189.7 4.5
5 10.4.2020 00:30 0.5 0 0 46.9 9.6 172.7 4.8
6 10.4.2020 00:00 0.4 0 0 45.9 10 173.7 5.2
7 9.4.2020 23:30 0.5 0 0 47.5 9.8 178.1 6.6
8 9.4.2020 23:00 0.5 0 0 47.2 10 180 5.6
9 9.4.2020 22:30 0.5 0 0 46.1 10.4 163.9 5.7
10 9.4.2020 22:00 0.5 0 0 45.3 10.6 167.4 5.9
11 9.4.2020 21:30 0.5 0 0 44.9 10.9 173.8 6.1
12 9.4.2020 21:00 0.5 0 0 42.6 11.8 156.6 5.8
13 9.4.2020 20:30 0.5 0 0 40.6 12.5 178.7 5.8
14 9.4.2020 20:00 0.5 0 0 33.7 14.5 136.4 4.5
15 9.4.2020 19:30 0.5 0 0 34.1 14.9 188.5 5.5
16 9.4.2020 19:00 2.9 0 0 29 16.5 183.8 5.4
17 9.4.2020 18:30 27.3 0 0 23.8 19.2 208.2 4.8
18 9.4.2020 18:00 78.2 0 0 22.6 19.9 36.6 4.6
19 9.4.2020 17:30 152.3 0 0 21.8 20.8 43.6 8.7
20 9.4.2020 17:00 237.6 0 0 18.2 21.6 61.4 9.9
21 9.4.2020 16:30 325.2 0 0 17.5 21.9 77.7 12
22 9.4.2020 16:00 410.7 0 0 15.2 22.2 101.7 11.1
23 9.4.2020 15:30 487.8 0 0 17 22.2 53.7 11.4
24 9.4.2020 15:00 558.1 0 0 19 22.1 61.7 13
25 9.4.2020 14:30 619.3 0 0 18.7 22 59.1 11.3
26 9.4.2020 14:00 648.9 0 0 25.9 21.4 48.2 6.6
27 9.4.2020 13:30 685 0 0 24.7 20.7 39.2 6.3
28 9.4.2020 13:00 709.9 0 0 26.5 20.3 325.5 6.5
29 9.4.2020 12:30 724.1 0 0 25.5 19.5 23.5 5.7
30 9.4.2020 12:00 727.8 0 0 24.9 19 123.9 5.9
31 9.4.2020 11:30 712.3 0 0 23.7 18.8 319.5 4.4
32 9.4.2020 11:00 686.6 0 0 26.4 18.1 66.2 4.3
33 9.4.2020 10:30 648.6 0 0 30.8 17.1 83.3 4.1
34 9.4.2020 10:00 601.9 0 0 34.1 15.9 21.3 4.1
35 9.4.2020 09:30 542.5 0 0 36.5 14.6 299.1 6
36 9.4.2020 09:00 471.3 0 0 42.5 13.6 324.2 5.9
37 9.4.2020 08:30 394.9 0 0 48.6 11.9 21.5 4.2
38 9.4.2020 08:00 313.1 0 0 52.1 10.4 310.9 3.3
39 9.4.2020 07:30 229 0 0 52.5 9.3 36.3 1.7
40 9.4.2020 07:00 148.3 0 0 57.2 7 281.5 1.1
41 9.4.2020 06:30 79.8 0 0 56 5.5 5.2 1.4
42 9.4.2020 06:00 24 0 0 63.1 3.4 237.2 4.4
43 9.4.2020 05:30 3.2 0 0 60.2 3.8 181.6 1.2
44 9.4.2020 05:00 0.5 0 0 57.9 4.4 23.5 2.8
45 9.4.2020 04:30 0.5 0 0 58.2 4.5 178.4 3.6
46 9.4.2020 04:00 0.5 0 0 56.3 5 164.3 2
47 9.4.2020 03:30 0.4 0 0 52.3 5.6 160.6 4.3
48 9.4.2020 03:00 0.4 0 0 55.5 5.4 204.6 4.6
© 2011 Ministrstvo za kmetijstvo, gozdarstvo in prehrano. Vse pravice pridržane.